Decoded Metar for KAFW (FT WORTH/ALLIANC in TX, USA) (IATA:AFW) | Meteo·Mobile Aviation Weather
aviador You're here:

KAFW Decoded Metar

FT WORTH/ALLIANC in TX, USA
Report Time2018-12-12 00:53:00
UTC Time2018-12-12 01:55:16
Flight Rules vfr VFR
Wind180° at 14 kt
W.Decomp.*RWY 16: 13.6 kt HW 3.1 kt RCW
W.Rank180° ranks 3
Current wind is above 180° avg. (8.9)
Visibility9999 m
Phenomena:N/A
Clouds:Few 200 Hf
Scattered 220 Hf
Overcast 260 Hf
Expected CloudBase > 3,600 ft AGL from Temp-Dew spread
Ceiling26,000 ft
Temp11°C (ISA -2)
Dew Point02°C (54% RH)
AAT4.3°C
QNH1020 hPa
Density Alt331 ft
Elevation764 ft
Report Wrong Elevation
Raw Report
KAFW 120053Z 18014KT 10SM FEW200 SCT220 OVC260 11/02 A3011 RMK AO2
SLP202 T01110022=

Extra information for KAFW:More info

Metar Taf Metar & Taf Last 4 Metars F.Rules Stats Wind Profile Meteogram Temp Stats Airport Information Weather charts Add Link Nearby VenuesMetar ALERT Operation Metar Decoded Social comments

AIRNAV info for KAFW